РПИ Екатеринбург

РегЦ Екатеринбург

Район полетной информации Екатеринбург (Урал) является структурным подразделением дивизиона VATRUS сети VATSIM.

В зону ответственности района входит воздушное пространство над территориями шести субъектов Российской Федерации: Кировской, Пермской, Курганской, Свердловской и Челябинской областей, а также республики Удмуртия. Воздушное пространство граничит с РегЦ Москвы, Санкт-Петербурга, Сыктывкара, Тюмени, Новосибирска и Самары, а на юге - с территорией Казахстана.

Контролируемое воздушное пространство составляет 686,6 тысяч кв. километров. В границах ответственности РегЦ Екатеринбург семь аэропортов, в их числе четыре международных и три – федерального значения.

Мы в Контакте

Средства связи ОВД / ATC Units:

RU-WSC_FSS - Западная Сибирь-Контроль (USSV, USTV FIRs)

USSV_CTR - Урал-Контроль - РЦ Екатеринбург - 122.200

USSV_1_CTR - Урал-Контроль - Сектор 1 - 122.200

USSV_2_CTR - Урал-Контроль - Сектор 2 (Север) - 131.300

USSV_3_CTR - Урал-Контроль - Сектор 3 - 127.300

USSV_4_CTR - Урал-Контроль - Сектор 4 (Курган) - 119.700

USSV_5_CTR - Урал-Контроль - Сектор 5 (Магнитогорск) - 125.500

USSV_6_CTR - Урал-Контроль - Сектор 6 (Челябинск) - 125.400

USSV_7_CTR - Урал-Контроль - Сектор 7  - 135.100

USSV_8_CTR - Урал-Контроль - Сектор 8 (Пермь) - 119.150

USSV_9_CTR - Урал-Контроль - Сектор 9 (Киров-Север) - 125.275

USSV_10_CTR - Урал-Контроль - Сектор 10 (Киров-Юг) - 132.200

Руководство

Andrey Tonkachev

Начальник РегЦ ЕС ОрВД (Екатеринбург)

Mikhail Romanov

Event-менеджер

Vadim Filev

И.О. начальника РегЦ ЕС ОрВД (Екатеринбург)
Инструкторы РПИ
Andrey Tonkachev * (Senior Student)
Anton Agaev (Instructor)
Dmitriy Bannov (Instructor)
Ivan Malygin * (Senior Student)
Kirill Rudavin (Instructor)
Maxim Gerasimov (Instructor)
Vadim Filev (Instructor)
Victor Rudnov (Instructor)
Входит в состав
Центральная Россия

Диспетчеры РПИ

Диспетчер Рейтинг Допуски *
Aleksandr Sokolov Instructor USSV_CTR
Alexander Shkut Controller USSV_CTR
Anton Agaev Instructor USSV_CTR
Dmitriy Bannov Instructor USSV_CTR
Ekaterina Romanova Instructor USSV_CTR
Igor Shitov Controller USSV_CTR
Kirill Rudavin Instructor USSV_CTR
Maxim Gerasimov Instructor USSV_CTR
Sergey Arkasov Instructor USSV_CTR
Vadim Filev Instructor USSV_CTR
Victor Rudnov Instructor USSV_CTR
Vladimir Anisimov Senior Controller USSV_CTR
Aleksey Garmash Student 2 USSS_R_APP*, USSS_TWR
Alexander Akhundov Student 2 USSS_TWR
Alexander Pervov Senior Student USCC_APP, USCM_TWR, USPP_APP, USSS_APP
Alexandr Jaschinsky Student 2 USSS_TWR
Alexey Krymsky Student USSS_TWR*, USSS_GND
Andrey Gridchin Controller USSS_APP
Andrey Shestakov Senior Student USCC_APP, USCM_TWR, USPP_APP, USSS_APP, USUU_TWR
Andrey Tarasov Senior Student USSS_APP
Andrey Tonkachev Senior Student USSS_TWR, USSS_GND, USSS_R_APP, USSS_APP
Andrey Zaitsev Student USSS_GND
Arseniy Ishmaev Student USSS_GND, USSS_TWR*
Artem Iakovlev Student USSS_GND, USSS_TWR*
Daniil Grachev Student 2 USSS_TWR
Daniil Lukin Student USSS_GND
Eldar Aliev Student 2 USCC_TWR, USPP_TWR, USSS_APP*
Ilya Pyrenkov Student 2 USCC_TWR, USPP_TWR, USSS_GND
Kirill Ardatov Senior Student USSS_TWR
Kirill Shabunin Senior Controller USSS_APP
Konstantin Norkin Student 2 USSS_TWR
Mikhail Govyrin Student USSS_TWR*, USSS_GND
Mikhail Romanov Student 2 USSS_TWR, USSS_R_APP*, USSS_GND
Nika Avdalov Student 2 USCC_TWR, USPP_TWR, USSS_TWR
Oleg Shpuntov Senior Student USSS_GND, USSS_APP
Pavel Pavlovich Student USSS_GND
Semyon Fedotov Student USSS_GND
Semyon Saprykin Student USSS_GND
Sergei Milantev Student 2 USSS_GND, USSS_TWR*
Vlad Poddubnyy Student USSS_GND
Vladislav Kepkov Student 2 USCC_R_APP*
Vsevolod Skryabin Student 2 USSS_TWR!!!

Аэропорты РПИ

ICAO Город Название Погода
USSS Екатеринбург Кольцово USSS 221130Z VRB01MPS CAVOK 21/00 Q1027 R08R/010060 NOSIG RMK QFE750/1000
USII Ижевск Ижевск
USKK Киров Киров
USUU Курган Курган
USCM Магнитогорск Магнитогорск USCM 221130Z 08005MPS 9999 BKN049 24/08 Q1024 R36/090060 NOSIG RMK QFE729
USPP Пермь Пермь USPP 221130Z 03007MPS CAVOK 21/M04 Q1026 R03/090060 NOSIG RMK QFE758
USCC Челябинск Челябинск USCC 221130Z 17002MPS 9999 SCT040CB 15/07 Q1027 R09/000060 NOSIG RMK QFE749